Kaikoura, New Zealand
Current Conditions -  °F | °C
As of 6:00 PM on Thursday 29 Jan 2015 (Local Time) from NZWN Reporting Station
Broken Clouds Broken Clouds  
Wind Chill: 64°   Ceiling: 500
Heat Index: 64°   Visibility: 6mi
Dew Point: 61°   Wind: 16mph
Humidity: 88%   Direction: 210°SSW
Pressure: 29.94"   Gusts: NA
Location:  42.4°S, 173.68°E
Report Text: NZWN 290600Z AUTO 21014KT 9999 BKN005/// 18/16 Q1014 TEMPOFEW030
Loading
Personal Weather Stations






























Interactive Weather Map New forecast layout! Learn more

10-Day Weather Forecast

Advertisements
Track Severe Weather on mobile